createdAt,value
2022-11-05T00:00:07.250Z,20.69
2022-11-05T00:01:07.846Z,20.80
2022-11-05T00:02:08.445Z,20.74
2022-11-05T00:03:09.303Z,20.72
2022-11-05T00:04:10.138Z,20.65
2022-11-05T00:05:10.782Z,20.70
2022-11-05T00:06:11.386Z,20.67
2022-11-05T00:07:11.982Z,20.66
2022-11-05T00:08:12.580Z,20.63
2022-11-05T00:09:13.181Z,20.62
2022-11-05T00:10:13.831Z,20.67
2022-11-05T00:11:18.152Z,20.77
2022-11-05T00:12:16.027Z,20.69
2022-11-05T00:13:16.623Z,20.75
2022-11-05T00:14:17.271Z,20.70
2022-11-05T00:15:17.875Z,20.62
2022-11-05T00:16:18.476Z,20.77
2022-11-05T00:17:19.080Z,20.65
2022-11-05T00:18:19.681Z,20.69
2022-11-05T00:19:20.282Z,20.62
2022-11-05T00:20:20.882Z,20.65
2022-11-05T00:21:21.629Z,20.65
2022-11-05T00:22:22.223Z,20.62
2022-11-05T00:23:22.823Z,20.63
2022-11-05T00:24:24.440Z,20.66
2022-11-05T00:25:25.016Z,20.65
2022-11-05T00:26:25.682Z,20.60
2022-11-05T00:27:26.281Z,20.66
2022-11-05T00:28:26.882Z,20.62
2022-11-05T00:29:28.280Z,20.63
2022-11-05T00:30:29.726Z,20.69
2022-11-05T00:31:30.480Z,20.62
2022-11-05T00:32:31.931Z,20.66
2022-11-05T00:33:32.528Z,20.65
2022-11-05T00:34:33.129Z,20.62
2022-11-05T00:35:34.576Z,20.63
2022-11-05T00:36:35.174Z,20.74
2022-11-05T00:37:35.779Z,20.63
2022-11-05T00:38:36.443Z,20.63
2022-11-05T00:39:37.039Z,20.70
2022-11-05T00:40:37.639Z,20.65
2022-11-05T00:41:38.245Z,20.62
2022-11-05T00:42:38.894Z,20.63
2022-11-05T00:43:39.496Z,20.63
2022-11-05T00:44:40.097Z,20.67
2022-11-05T00:45:40.701Z,20.63
2022-11-05T00:46:41.350Z,20.62
2022-11-05T00:47:41.951Z,20.62
2022-11-05T00:48:42.551Z,20.62
2022-11-05T00:49:43.150Z,20.62
2022-11-05T00:50:43.750Z,20.62
2022-11-05T00:51:44.353Z,20.66
2022-11-05T00:52:44.952Z,20.65
2022-11-05T00:53:45.554Z,20.62
2022-11-05T00:54:46.157Z,20.63
2022-11-05T00:55:46.750Z,20.60
2022-11-05T00:56:47.349Z,20.58
2022-11-05T00:57:47.949Z,20.63
2022-11-05T00:58:48.550Z,20.62
2022-11-05T00:59:49.150Z,20.62
2022-11-05T01:00:49.749Z,20.60
2022-11-05T01:01:50.430Z,20.63
2022-11-05T01:02:51.255Z,20.60
2022-11-05T01:03:52.150Z,20.67
2022-11-05T01:04:52.775Z,20.59
2022-11-05T01:05:53.377Z,20.66
2022-11-05T01:06:54.043Z,20.65
2022-11-05T01:07:54.647Z,20.65
2022-11-05T01:08:55.241Z,20.59
2022-11-05T01:09:55.844Z,20.66
2022-11-05T01:10:56.443Z,20.62
2022-11-05T01:11:57.043Z,20.59
2022-11-05T01:12:57.641Z,20.63
2022-11-05T01:13:58.237Z,20.63
2022-11-05T01:14:58.837Z,20.66
2022-11-05T01:15:59.439Z,20.62
2022-11-05T01:17:00.038Z,20.62
2022-11-05T01:18:00.640Z,20.65
2022-11-05T01:19:01.239Z,20.65
2022-11-05T01:20:01.841Z,20.63
2022-11-05T01:21:02.513Z,20.62
2022-11-05T01:22:03.117Z,20.63
2022-11-05T01:23:05.488Z,20.63
2022-11-05T01:24:05.380Z,20.67
2022-11-05T01:25:05.990Z,20.67
2022-11-05T01:26:06.580Z,20.66
2022-11-05T01:27:07.179Z,20.66
2022-11-05T01:28:07.844Z,20.63
2022-11-05T01:29:08.605Z,20.62
2022-11-05T01:30:09.108Z,20.67
2022-11-05T01:31:09.769Z,20.62
2022-11-05T01:32:10.370Z,20.66
2022-11-05T01:33:11.379Z,20.62
2022-11-05T01:34:12.158Z,20.63
2022-11-05T01:35:12.761Z,20.62
2022-11-05T01:36:13.572Z,20.66
2022-11-05T01:37:14.170Z,20.65
2022-11-05T01:38:14.771Z,20.65
2022-11-05T01:39:15.368Z,20.65
2022-11-05T01:40:15.964Z,20.62
2022-11-05T01:41:16.613Z,20.67
2022-11-05T01:42:17.363Z,20.66
2022-11-05T01:43:17.958Z,20.66
2022-11-05T01:44:18.558Z,20.63
2022-11-05T01:45:19.309Z,20.63
2022-11-05T01:46:19.911Z,20.65
2022-11-05T01:47:20.508Z,20.63
2022-11-05T01:48:21.107Z,20.66
2022-11-05T01:49:22.553Z,20.65
2022-11-05T01:50:23.153Z,20.62
2022-11-05T01:51:23.750Z,20.59
2022-11-05T01:52:24.349Z,20.65
2022-11-05T01:53:24.947Z,20.63
2022-11-05T01:54:25.645Z,20.56
2022-11-05T01:55:26.243Z,20.62
2022-11-05T01:56:26.845Z,20.59
2022-11-05T01:57:27.443Z,20.60
2022-11-05T01:58:28.049Z,20.58
2022-11-05T01:59:28.646Z,20.55
2022-11-05T02:00:29.248Z,20.59
2022-11-05T02:01:29.980Z,20.48
2022-11-05T02:02:30.704Z,20.43
2022-11-05T02:03:31.396Z,20.50
2022-11-05T02:04:31.997Z,20.50
2022-11-05T02:05:32.595Z,20.48
2022-11-05T02:06:33.230Z,20.48
2022-11-05T02:07:33.831Z,20.43
2022-11-05T02:08:34.431Z,20.44
2022-11-05T02:09:35.030Z,20.47
2022-11-05T02:10:35.630Z,20.50
2022-11-05T02:11:36.230Z,20.48
2022-11-05T02:12:36.830Z,20.55
2022-11-05T02:13:37.431Z,20.52
2022-11-05T02:14:38.028Z,20.41
2022-11-05T02:15:38.626Z,20.44
2022-11-05T02:16:39.229Z,20.48
2022-11-05T02:17:39.823Z,20.43
2022-11-05T02:18:40.423Z,20.44
2022-11-05T02:19:41.023Z,20.43
2022-11-05T02:20:41.621Z,20.40
2022-11-05T02:21:42.220Z,20.37
2022-11-05T02:22:42.819Z,20.44
2022-11-05T02:23:43.418Z,20.40
2022-11-05T02:24:44.818Z,20.40
2022-11-05T02:25:45.417Z,20.41
2022-11-05T02:26:46.015Z,20.37
2022-11-05T02:27:46.620Z,20.39
2022-11-05T02:28:47.216Z,20.32
2022-11-05T02:29:47.888Z,20.31
2022-11-05T02:30:48.469Z,20.32
2022-11-05T02:31:49.064Z,20.34
2022-11-05T02:32:49.668Z,20.28
2022-11-05T02:33:50.267Z,20.28
2022-11-05T02:34:50.867Z,20.32
2022-11-05T02:35:51.466Z,20.32
2022-11-05T02:36:52.065Z,20.26
2022-11-05T02:37:52.665Z,20.29
2022-11-05T02:38:53.415Z,20.25
2022-11-05T02:39:54.013Z,20.26
2022-11-05T02:40:54.616Z,20.28
2022-11-05T02:41:55.952Z,20.29
2022-11-05T02:42:56.806Z,20.31
2022-11-05T02:43:57.471Z,20.34
2022-11-05T02:44:58.070Z,20.26
2022-11-05T02:45:58.670Z,20.29
2022-11-05T02:46:59.266Z,20.22
2022-11-05T02:47:59.867Z,20.25
2022-11-05T02:49:01.316Z,20.22
2022-11-05T02:50:01.965Z,20.22
2022-11-05T02:51:02.566Z,20.22
2022-11-05T02:52:03.163Z,20.25
2022-11-05T02:53:03.764Z,20.18
2022-11-05T02:54:05.216Z,20.25
2022-11-05T02:55:06.672Z,20.14
2022-11-05T02:56:07.264Z,20.26
2022-11-05T02:57:07.859Z,20.25
2022-11-05T02:58:08.508Z,20.16
2022-11-05T02:59:09.102Z,20.18
2022-11-05T03:00:09.704Z,20.18
2022-11-05T03:01:10.299Z,20.22
2022-11-05T03:02:10.998Z,20.19
2022-11-05T03:03:11.911Z,20.18
2022-11-05T03:04:12.712Z,20.19
2022-11-05T03:05:13.311Z,20.16
2022-11-05T03:06:13.909Z,20.19
2022-11-05T03:07:14.511Z,20.21
2022-11-05T03:08:15.139Z,20.21
2022-11-05T03:09:15.737Z,20.21
2022-11-05T03:10:16.337Z,20.19
2022-11-05T03:11:16.942Z,20.22
2022-11-05T03:12:17.539Z,20.14
2022-11-05T03:13:18.142Z,20.18
2022-11-05T03:14:18.808Z,20.19
2022-11-05T03:15:19.420Z,20.18
2022-11-05T03:16:20.079Z,20.18
2022-11-05T03:17:20.681Z,20.18
2022-11-05T03:18:21.288Z,20.16
2022-11-05T03:19:21.878Z,20.14
2022-11-05T03:20:22.479Z,20.14
2022-11-05T03:21:23.143Z,20.14
2022-11-05T03:22:23.743Z,20.16
2022-11-05T03:23:24.341Z,20.14
2022-11-05T03:24:24.937Z,20.11
2022-11-05T03:25:25.535Z,20.14
2022-11-05T03:26:26.132Z,20.03
2022-11-05T03:27:26.731Z,20.16
2022-11-05T03:28:27.336Z,20.18
2022-11-05T03:29:27.997Z,20.04
2022-11-05T03:30:28.662Z,20.03
2022-11-05T03:31:29.262Z,20.16
2022-11-05T03:32:29.860Z,20.00
2022-11-05T03:33:30.463Z,20.11
2022-11-05T03:34:31.058Z,20.07
2022-11-05T03:35:31.662Z,20.04
2022-11-05T03:36:32.330Z,20.06
2022-11-05T03:37:32.999Z,20.07
2022-11-05T03:38:33.599Z,20.06
2022-11-05T03:39:34.200Z,20.06
2022-11-05T03:40:34.802Z,20.04
2022-11-05T03:41:35.403Z,20.11
2022-11-05T03:42:36.008Z,20.06
2022-11-05T03:43:36.605Z,20.03
2022-11-05T03:44:37.206Z,20.09
2022-11-05T03:45:37.807Z,20.10
2022-11-05T03:46:38.407Z,20.09
2022-11-05T03:47:39.009Z,20.06
2022-11-05T03:48:39.649Z,20.09
2022-11-05T03:49:40.266Z,20.00
2022-11-05T03:50:41.620Z,20.04
2022-11-05T03:51:42.516Z,20.06
2022-11-05T03:52:43.110Z,20.06
2022-11-05T03:53:43.706Z,20.04
2022-11-05T03:54:44.305Z,20.02
2022-11-05T03:55:44.952Z,20.03
2022-11-05T03:56:45.703Z,20.06
2022-11-05T03:57:46.303Z,19.89
2022-11-05T03:58:46.902Z,20.00
2022-11-05T03:59:47.653Z,20.03
2022-11-05T04:00:48.249Z,20.07
2022-11-05T04:01:48.943Z,20.04
2022-11-05T04:02:49.833Z,20.02
2022-11-05T04:03:50.550Z,20.06
2022-11-05T04:04:51.151Z,19.94
2022-11-05T04:05:51.750Z,19.91
2022-11-05T04:06:52.349Z,19.94
2022-11-05T04:07:52.943Z,20.00
2022-11-05T04:08:53.543Z,20.04
2022-11-05T04:09:54.292Z,19.99
2022-11-05T04:10:54.890Z,20.02
2022-11-05T04:11:55.493Z,20.02
2022-11-05T04:12:56.095Z,19.91
2022-11-05T04:13:56.711Z,20.00
2022-11-05T04:14:57.363Z,20.02
2022-11-05T04:15:57.968Z,20.02
2022-11-05T04:16:58.633Z,19.99
2022-11-05T04:17:59.234Z,19.91
2022-11-05T04:18:59.833Z,20.00
2022-11-05T04:20:00.453Z,19.96
2022-11-05T04:21:01.101Z,19.92
2022-11-05T04:22:01.696Z,19.95
2022-11-05T04:23:02.295Z,19.94
2022-11-05T04:24:02.891Z,19.94
2022-11-05T04:25:03.492Z,19.99
2022-11-05T04:26:04.089Z,19.95
2022-11-05T04:27:04.686Z,19.96
2022-11-05T04:28:05.285Z,19.91
2022-11-05T04:29:08.001Z,19.89
2022-11-05T04:30:07.482Z,19.91
2022-11-05T04:31:08.076Z,19.95
2022-11-05T04:32:08.674Z,19.92
2022-11-05T04:33:09.603Z,19.92
2022-11-05T04:34:10.391Z,19.95
2022-11-05T04:35:10.990Z,20.00
2022-11-05T04:36:11.586Z,19.94
2022-11-05T04:37:12.188Z,19.94
2022-11-05T04:38:12.785Z,19.89
2022-11-05T04:39:13.384Z,19.94
2022-11-05T04:40:13.988Z,19.94
2022-11-05T04:41:14.588Z,19.95
2022-11-05T04:42:15.257Z,19.99
2022-11-05T04:43:15.887Z,19.91
2022-11-05T04:44:16.494Z,19.99
2022-11-05T04:45:17.086Z,19.84
2022-11-05T04:46:17.686Z,20.03
2022-11-05T04:47:18.288Z,19.99
2022-11-05T04:48:18.888Z,19.95
2022-11-05T04:49:19.491Z,19.82
2022-11-05T04:50:20.095Z,19.95
2022-11-05T04:51:20.692Z,19.88
2022-11-05T04:52:21.294Z,19.92
2022-11-05T04:53:21.895Z,19.94
2022-11-05T04:54:22.496Z,19.82
2022-11-05T04:55:23.105Z,19.94
2022-11-05T04:56:23.699Z,19.91
2022-11-05T04:57:24.445Z,19.91
2022-11-05T04:58:25.039Z,19.94
2022-11-05T04:59:26.488Z,19.91
2022-11-05T05:00:27.339Z,20.00
2022-11-05T05:01:28.212Z,19.92
2022-11-05T05:02:28.879Z,19.91
2022-11-05T05:03:29.479Z,19.91
2022-11-05T05:04:30.127Z,19.89
2022-11-05T05:05:30.725Z,19.85
2022-11-05T05:06:31.323Z,19.94
2022-11-05T05:07:31.925Z,19.91
2022-11-05T05:08:32.526Z,19.89
2022-11-05T05:09:33.190Z,19.94
2022-11-05T05:10:33.789Z,19.92
2022-11-05T05:11:34.437Z,19.89
2022-11-05T05:12:35.036Z,19.89
2022-11-05T05:13:35.639Z,19.82
2022-11-05T05:14:36.237Z,19.85
2022-11-05T05:15:36.835Z,19.89
2022-11-05T05:16:37.432Z,19.88
2022-11-05T05:17:38.032Z,19.94
2022-11-05T05:18:42.226Z,19.85
2022-11-05T05:19:40.225Z,19.89
2022-11-05T05:20:40.824Z,19.86
2022-11-05T05:21:41.423Z,19.86
2022-11-05T05:22:42.022Z,19.88
2022-11-05T05:23:42.771Z,19.88
2022-11-05T05:24:46.280Z,19.89
2022-11-05T05:25:44.964Z,19.86
2022-11-05T05:26:45.564Z,19.88
2022-11-05T05:27:46.161Z,19.86
2022-11-05T05:28:46.757Z,19.86
2022-11-05T05:29:47.354Z,19.86
2022-11-05T05:30:47.950Z,19.91
2022-11-05T05:31:48.547Z,19.89
2022-11-05T05:32:49.148Z,19.86
2022-11-05T05:33:49.746Z,19.88
2022-11-05T05:34:50.343Z,19.84
2022-11-05T05:35:50.941Z,19.91
2022-11-05T05:36:51.538Z,19.88
2022-11-05T05:37:52.137Z,19.86
2022-11-05T05:38:52.739Z,19.84
2022-11-05T05:39:53.335Z,19.89
2022-11-05T05:40:53.934Z,19.85
2022-11-05T05:41:54.570Z,19.84
2022-11-05T05:42:55.166Z,19.85
2022-11-05T05:43:55.764Z,19.82
2022-11-05T05:44:56.366Z,19.76
2022-11-05T05:45:56.967Z,19.81
2022-11-05T05:46:57.642Z,19.85
2022-11-05T05:47:58.231Z,19.81
2022-11-05T05:48:58.833Z,19.84
2022-11-05T05:49:59.431Z,19.85
2022-11-05T05:51:00.029Z,19.85
2022-11-05T05:52:00.630Z,19.88
2022-11-05T05:53:01.227Z,19.81
2022-11-05T05:54:01.823Z,19.82
2022-11-05T05:55:02.424Z,19.85
2022-11-05T05:56:03.024Z,19.73
2022-11-05T05:57:03.627Z,19.85
2022-11-05T05:58:04.411Z,19.77
2022-11-05T05:59:05.007Z,19.84
2022-11-05T06:00:06.457Z,19.82
2022-11-05T06:01:07.057Z,19.81
2022-11-05T06:02:07.804Z,19.82
2022-11-05T06:03:08.657Z,19.76
2022-11-05T06:04:09.486Z,19.76
2022-11-05T06:05:10.085Z,19.82
2022-11-05T06:06:10.684Z,19.81
2022-11-05T06:07:11.282Z,19.81
2022-11-05T06:08:11.886Z,19.77
2022-11-05T06:09:12.632Z,19.82
2022-11-05T06:10:13.271Z,19.77
2022-11-05T06:11:14.758Z,19.79
2022-11-05T06:12:15.353Z,19.76
2022-11-05T06:13:15.954Z,19.76
2022-11-05T06:14:16.557Z,19.76
2022-11-05T06:15:17.206Z,19.73
2022-11-05T06:16:17.854Z,19.73
2022-11-05T06:17:18.559Z,19.74
2022-11-05T06:18:19.114Z,19.73
2022-11-05T06:19:19.712Z,19.76
2022-11-05T06:20:20.308Z,19.73
2022-11-05T06:21:20.907Z,19.71
2022-11-05T06:22:21.501Z,19.81
2022-11-05T06:23:22.098Z,19.85
2022-11-05T06:24:22.700Z,19.81
2022-11-05T06:25:23.299Z,19.74
2022-11-05T06:26:23.902Z,19.76
2022-11-05T06:27:24.495Z,19.76
2022-11-05T06:28:25.095Z,19.82
2022-11-05T06:29:25.842Z,19.76
2022-11-05T06:30:26.591Z,19.76
2022-11-05T06:31:28.038Z,19.76
2022-11-05T06:32:28.685Z,19.76
2022-11-05T06:33:29.334Z,19.70
2022-11-05T06:34:29.935Z,19.66
2022-11-05T06:35:30.586Z,19.73
2022-11-05T06:36:31.185Z,19.69
2022-11-05T06:37:31.813Z,19.73
2022-11-05T06:38:32.391Z,19.66
2022-11-05T06:39:32.993Z,19.73
2022-11-05T06:40:33.591Z,19.77
2022-11-05T06:41:45.683Z,19.76
2022-11-05T06:42:35.785Z,19.76
2022-11-05T06:43:36.385Z,19.76
2022-11-05T06:44:36.985Z,19.67
2022-11-05T06:45:37.586Z,19.73
2022-11-05T06:46:38.176Z,19.67
2022-11-05T06:47:38.779Z,19.64
2022-11-05T06:48:39.378Z,19.71
2022-11-05T06:49:39.978Z,19.67
2022-11-05T06:50:40.641Z,19.71
2022-11-05T06:51:41.237Z,19.73
2022-11-05T06:52:41.836Z,19.70
2022-11-05T06:53:42.947Z,19.74
2022-11-05T06:54:43.550Z,19.66
2022-11-05T06:55:44.142Z,19.64
2022-11-05T06:56:44.743Z,19.67
2022-11-05T06:57:45.339Z,19.73
2022-11-05T06:58:45.938Z,19.71
2022-11-05T06:59:46.539Z,19.70
2022-11-05T07:00:47.201Z,19.67
2022-11-05T07:01:48.126Z,19.76
2022-11-05T07:02:48.801Z,19.64
2022-11-05T07:03:49.406Z,19.67
2022-11-05T07:04:50.069Z,19.64
2022-11-05T07:05:50.670Z,19.63
2022-11-05T07:06:51.267Z,19.67
2022-11-05T07:07:51.866Z,19.66
2022-11-05T07:08:52.484Z,19.58
2022-11-05T07:09:53.067Z,19.64
2022-11-05T07:10:53.669Z,19.63
2022-11-05T07:11:54.267Z,19.66
2022-11-05T07:12:54.866Z,19.63
2022-11-05T07:13:55.472Z,19.66
2022-11-05T07:14:56.070Z,19.69
2022-11-05T07:15:57.472Z,19.70
2022-11-05T07:16:58.072Z,19.59
2022-11-05T07:17:58.672Z,19.66
2022-11-05T07:18:59.273Z,19.67
2022-11-05T07:19:59.874Z,19.69
2022-11-05T07:21:00.468Z,19.64
2022-11-05T07:22:01.067Z,19.70
2022-11-05T07:23:01.663Z,19.64
2022-11-05T07:24:02.259Z,19.63
2022-11-05T07:25:02.857Z,19.62
2022-11-05T07:26:03.458Z,19.59
2022-11-05T07:27:04.057Z,19.62
2022-11-05T07:28:04.653Z,19.58
2022-11-05T07:29:05.252Z,19.63
2022-11-05T07:30:05.852Z,19.64
2022-11-05T07:31:06.451Z,19.69
2022-11-05T07:32:07.052Z,19.58
2022-11-05T07:33:07.658Z,19.64
2022-11-05T07:34:08.256Z,19.64
2022-11-05T07:35:08.862Z,19.62
2022-11-05T07:36:10.304Z,19.64
2022-11-05T07:37:11.050Z,19.54
2022-11-05T07:38:11.696Z,19.58
2022-11-05T07:39:12.294Z,19.51
2022-11-05T07:40:12.894Z,19.62
2022-11-05T07:41:14.344Z,19.56
2022-11-05T07:42:14.996Z,19.64
2022-11-05T07:43:15.596Z,19.62
2022-11-05T07:44:16.193Z,19.63
2022-11-05T07:45:16.798Z,19.59
2022-11-05T07:46:17.393Z,19.51
2022-11-05T07:47:17.997Z,19.56
2022-11-05T07:48:18.597Z,19.52
2022-11-05T07:49:19.196Z,19.54
2022-11-05T07:50:19.797Z,19.52
2022-11-05T07:51:20.398Z,19.64
2022-11-05T07:52:20.998Z,19.62
2022-11-05T07:53:21.652Z,19.52
2022-11-05T07:54:22.242Z,19.63
2022-11-05T07:55:22.846Z,19.64
2022-11-05T07:56:23.511Z,19.56
2022-11-05T07:57:24.115Z,19.59
2022-11-05T07:58:24.706Z,19.58
2022-11-05T07:59:25.304Z,19.59
2022-11-05T08:00:25.902Z,19.54
2022-11-05T08:01:26.723Z,19.56
2022-11-05T08:02:28.549Z,19.59
2022-11-05T08:03:29.426Z,19.56
2022-11-05T08:04:30.074Z,19.54
2022-11-05T08:05:30.674Z,19.56
2022-11-05T08:06:31.271Z,19.51
2022-11-05T08:07:31.882Z,19.56
2022-11-05T08:08:32.464Z,19.58
2022-11-05T08:09:33.066Z,19.51
2022-11-05T08:10:33.665Z,19.55
2022-11-05T08:11:34.261Z,19.41
2022-11-05T08:12:34.865Z,19.56
2022-11-05T08:13:35.462Z,19.58
2022-11-05T08:14:36.060Z,19.47
2022-11-05T08:15:36.659Z,19.47
2022-11-05T08:16:37.260Z,19.55
2022-11-05T08:17:37.859Z,19.49
2022-11-05T08:18:38.463Z,19.49
2022-11-05T08:19:39.060Z,19.44
2022-11-05T08:20:39.662Z,19.48
2022-11-05T08:21:40.262Z,19.51
2022-11-05T08:22:40.862Z,19.45
2022-11-05T08:23:41.463Z,19.49
2022-11-05T08:24:42.130Z,19.48
2022-11-05T08:25:42.737Z,19.48
2022-11-05T08:26:43.324Z,19.51
2022-11-05T08:27:43.922Z,19.55
2022-11-05T08:28:44.524Z,19.45
2022-11-05T08:29:45.141Z,19.54
2022-11-05T08:30:45.738Z,19.48
2022-11-05T08:31:46.335Z,19.45
2022-11-05T08:32:46.932Z,19.51
2022-11-05T08:33:47.530Z,19.45
2022-11-05T08:34:48.127Z,19.45
2022-11-05T08:35:48.724Z,19.41
2022-11-05T08:36:49.322Z,19.45
2022-11-05T08:37:49.917Z,19.45
2022-11-05T08:38:50.567Z,19.47
2022-11-05T08:39:51.165Z,19.47
2022-11-05T08:40:51.761Z,19.51
2022-11-05T08:41:52.359Z,19.45
2022-11-05T08:42:52.962Z,19.45
2022-11-05T08:43:54.415Z,19.56
2022-11-05T08:44:55.866Z,19.51
2022-11-05T08:45:56.466Z,19.44
2022-11-05T08:46:57.128Z,19.51
2022-11-05T08:47:57.727Z,19.48
2022-11-05T08:48:58.327Z,19.51
2022-11-05T08:49:58.971Z,19.54
2022-11-05T08:50:59.573Z,19.56
2022-11-05T08:52:00.174Z,19.48
2022-11-05T08:53:00.773Z,19.52
2022-11-05T08:54:01.375Z,19.45
2022-11-05T08:55:02.021Z,19.52
2022-11-05T08:56:02.628Z,19.47
2022-11-05T08:57:03.228Z,19.48
2022-11-05T08:58:03.828Z,19.45
2022-11-05T08:59:04.425Z,19.48
2022-11-05T09:00:05.022Z,19.51
2022-11-05T09:01:05.809Z,19.47
2022-11-05T09:02:06.565Z,19.47
2022-11-05T09:03:07.208Z,19.48
2022-11-05T09:04:07.989Z,19.45
2022-11-05T09:05:08.613Z,19.47
2022-11-05T09:06:09.211Z,19.48
2022-11-05T09:07:09.810Z,19.48
2022-11-05T09:08:10.405Z,19.49
2022-11-05T09:09:11.009Z,19.49
2022-11-05T09:10:11.601Z,19.45
2022-11-05T09:11:12.269Z,19.51
2022-11-05T09:12:13.281Z,19.48
2022-11-05T09:13:18.692Z,19.48
2022-11-05T09:14:15.114Z,19.41
2022-11-05T09:15:15.713Z,19.51
2022-11-05T09:16:16.314Z,19.48
2022-11-05T09:17:16.914Z,19.47
2022-11-05T09:18:17.521Z,19.45
2022-11-05T09:19:18.258Z,19.48
2022-11-05T09:20:18.848Z,19.44
2022-11-05T09:21:19.445Z,19.47
2022-11-05T09:22:20.046Z,19.44
2022-11-05T09:23:20.647Z,19.48
2022-11-05T09:24:21.246Z,19.47
2022-11-05T09:25:21.848Z,19.47
2022-11-05T09:26:22.444Z,19.45
2022-11-05T09:27:23.045Z,19.48
2022-11-05T09:28:23.648Z,19.44
2022-11-05T09:29:24.240Z,19.51
2022-11-05T09:30:24.839Z,19.44
2022-11-05T09:31:25.436Z,19.48
2022-11-05T09:32:26.035Z,19.45
2022-11-05T09:33:26.705Z,19.45
2022-11-05T09:34:27.300Z,19.51
2022-11-05T09:35:27.894Z,19.44
2022-11-05T09:36:28.492Z,19.48
2022-11-05T09:37:29.089Z,19.39
2022-11-05T09:38:29.686Z,19.48
2022-11-05T09:39:30.289Z,19.40
2022-11-05T09:40:30.888Z,19.39
2022-11-05T09:41:31.489Z,19.45
2022-11-05T09:42:32.155Z,19.45
2022-11-05T09:43:32.751Z,19.39
2022-11-05T09:44:33.399Z,19.44
2022-11-05T09:45:34.851Z,19.39
2022-11-05T09:46:35.445Z,19.47
2022-11-05T09:47:36.897Z,19.47
2022-11-05T09:48:37.496Z,19.40
2022-11-05T09:49:38.945Z,19.41
2022-11-05T09:50:39.546Z,19.48
2022-11-05T09:51:40.145Z,19.41
2022-11-05T09:52:40.746Z,19.49
2022-11-05T09:53:41.349Z,19.47
2022-11-05T09:54:41.949Z,19.48
2022-11-05T09:55:42.550Z,19.47
2022-11-05T09:56:43.182Z,19.47
2022-11-05T09:57:43.774Z,19.45
2022-11-05T09:58:44.367Z,19.44
2022-11-05T09:59:44.970Z,19.41
2022-11-05T10:00:45.658Z,19.45
2022-11-05T10:01:46.350Z,19.48
2022-11-05T10:02:46.993Z,19.45
2022-11-05T10:03:47.590Z,19.49
2022-11-05T10:04:48.237Z,19.47
2022-11-05T10:05:48.880Z,19.49
2022-11-05T10:06:49.539Z,19.44
2022-11-05T10:07:50.137Z,19.47
2022-11-05T10:08:50.736Z,19.40
2022-11-05T10:09:51.338Z,19.48
2022-11-05T10:10:51.938Z,19.45
2022-11-05T10:11:52.543Z,19.45
2022-11-05T10:12:53.141Z,19.45
2022-11-05T10:13:53.743Z,19.48
2022-11-05T10:14:54.342Z,19.49
2022-11-05T10:15:54.942Z,19.49
2022-11-05T10:16:55.542Z,19.49
2022-11-05T10:17:56.144Z,19.51
2022-11-05T10:18:56.744Z,19.51
2022-11-05T10:19:57.343Z,19.49
2022-11-05T10:20:58.740Z,19.52
2022-11-05T10:22:06.604Z,19.51
2022-11-05T10:23:00.867Z,19.49
2022-11-05T10:24:01.534Z,19.51
2022-11-05T10:25:02.181Z,19.44
2022-11-05T10:26:02.767Z,19.44
2022-11-05T10:27:03.365Z,19.47
2022-11-05T10:28:03.965Z,19.51
2022-11-05T10:29:04.574Z,19.56
2022-11-05T10:30:05.169Z,19.54
2022-11-05T10:31:05.765Z,19.56
2022-11-05T10:32:06.366Z,19.52
2022-11-05T10:33:06.965Z,19.59
2022-11-05T10:34:07.563Z,19.59
2022-11-05T10:35:08.160Z,19.63
2022-11-05T10:36:08.769Z,19.58
2022-11-05T10:37:09.372Z,19.54
2022-11-05T10:38:09.971Z,19.59
2022-11-05T10:39:10.568Z,19.56
2022-11-05T10:40:11.169Z,19.56
2022-11-05T10:41:11.771Z,19.58
2022-11-05T10:42:12.370Z,19.66
2022-11-05T10:43:13.338Z,19.52
2022-11-05T10:44:18.640Z,19.69
2022-11-05T10:45:15.766Z,19.64
2022-11-05T10:46:16.368Z,19.69
2022-11-05T10:47:16.982Z,19.67
2022-11-05T10:48:17.640Z,19.69
2022-11-05T10:49:18.239Z,19.58
2022-11-05T10:50:18.888Z,19.59
2022-11-05T10:51:19.537Z,19.64
2022-11-05T10:52:20.236Z,19.64
2022-11-05T10:53:20.898Z,19.66
2022-11-05T10:54:21.501Z,19.67
2022-11-05T10:55:22.098Z,19.73
2022-11-05T10:56:22.751Z,19.73
2022-11-05T10:57:23.394Z,19.67
2022-11-05T10:58:23.991Z,19.62
2022-11-05T10:59:24.588Z,19.69
2022-11-05T11:00:25.186Z,19.66
2022-11-05T11:01:25.903Z,19.67
2022-11-05T11:02:26.609Z,19.70
2022-11-05T11:03:27.206Z,19.73
2022-11-05T11:04:27.814Z,19.66
2022-11-05T11:05:28.406Z,19.69
2022-11-05T11:06:29.973Z,19.71
2022-11-05T11:07:30.534Z,19.73
2022-11-05T11:08:31.138Z,19.66
2022-11-05T11:09:31.744Z,19.69
2022-11-05T11:10:32.342Z,19.70
2022-11-05T11:11:32.944Z,19.64
2022-11-05T11:12:38.194Z,19.71
2022-11-05T11:13:35.201Z,19.74
2022-11-05T11:14:35.804Z,19.71
2022-11-05T11:15:36.400Z,19.71
2022-11-05T11:16:37.001Z,19.67
2022-11-05T11:17:37.649Z,19.69
2022-11-05T11:18:40.188Z,19.64
2022-11-05T11:19:39.849Z,19.67
2022-11-05T11:20:40.444Z,19.64
2022-11-05T11:21:41.047Z,19.66
2022-11-05T11:22:41.650Z,19.59
2022-11-05T11:23:42.247Z,19.64
2022-11-05T11:24:42.849Z,19.69
2022-11-05T11:25:43.446Z,19.63
2022-11-05T11:26:44.046Z,19.66
2022-11-05T11:27:44.647Z,19.58
2022-11-05T11:28:45.246Z,19.66
2022-11-05T11:29:49.317Z,19.64
2022-11-05T11:30:47.443Z,19.52
2022-11-05T11:31:48.040Z,19.56
2022-11-05T11:32:48.646Z,19.59
2022-11-05T11:33:49.241Z,19.56
2022-11-05T11:34:49.841Z,19.59
2022-11-05T11:35:50.441Z,19.52
2022-11-05T11:36:51.041Z,19.59
2022-11-05T11:37:51.641Z,19.52
2022-11-05T11:38:52.243Z,19.52
2022-11-05T11:39:52.840Z,19.56
2022-11-05T11:40:53.446Z,19.52
2022-11-05T11:41:54.049Z,19.55
2022-11-05T11:42:54.653Z,19.58
2022-11-05T11:43:55.253Z,19.56
2022-11-05T11:44:55.856Z,19.52
2022-11-05T11:46:00.667Z,19.56
2022-11-05T11:46:58.049Z,19.56
2022-11-05T11:47:58.649Z,19.54
2022-11-05T11:48:59.250Z,19.52
2022-11-05T11:49:59.854Z,19.44
2022-11-05T11:51:00.520Z,19.51
2022-11-05T11:52:01.122Z,19.59
2022-11-05T11:53:01.744Z,19.54
2022-11-05T11:54:02.343Z,19.51
2022-11-05T11:55:02.944Z,19.55
2022-11-05T11:56:03.546Z,19.55
2022-11-05T11:57:04.145Z,19.56
2022-11-05T11:58:04.744Z,19.56
2022-11-05T11:59:05.490Z,19.55
2022-11-05T12:00:09.227Z,19.56
2022-11-05T12:01:07.640Z,19.51
2022-11-05T12:02:08.399Z,19.51
2022-11-05T12:03:09.213Z,19.41
2022-11-05T12:04:09.812Z,19.47
2022-11-05T12:05:10.410Z,19.54
2022-11-05T12:06:11.058Z,19.52
2022-11-05T12:07:11.656Z,19.51
2022-11-05T12:08:12.255Z,19.48
2022-11-05T12:09:12.864Z,19.52
2022-11-05T12:10:13.460Z,19.52
2022-11-05T12:11:14.057Z,19.51
2022-11-05T12:12:14.718Z,19.59
2022-11-05T12:13:15.329Z,19.52
2022-11-05T12:14:15.927Z,19.45
2022-11-05T12:15:16.598Z,19.49
2022-11-05T12:16:17.193Z,19.40
2022-11-05T12:17:17.845Z,19.52
2022-11-05T12:18:18.582Z,19.47
2022-11-05T12:19:19.189Z,19.47
2022-11-05T12:20:19.790Z,19.45
2022-11-05T12:21:34.812Z,19.49
2022-11-05T12:22:22.054Z,19.45
2022-11-05T12:23:22.656Z,19.44
2022-11-05T12:24:23.257Z,19.45
2022-11-05T12:25:23.859Z,19.51
2022-11-05T12:26:24.461Z,19.48
2022-11-05T12:27:25.063Z,19.51
2022-11-05T12:28:25.665Z,19.44
2022-11-05T12:29:29.057Z,19.45
2022-11-05T12:30:27.772Z,19.55
2022-11-05T12:31:28.371Z,19.55
2022-11-05T12:32:29.071Z,19.51
2022-11-05T12:33:30.565Z,19.55
2022-11-05T12:34:31.314Z,19.55
2022-11-05T12:35:31.985Z,19.63
2022-11-05T12:36:32.583Z,19.54
2022-11-05T12:37:33.182Z,19.55
2022-11-05T12:38:34.632Z,19.58
2022-11-05T12:39:35.229Z,19.59
2022-11-05T12:40:35.827Z,19.55
2022-11-05T12:41:36.428Z,19.59
2022-11-05T12:42:37.027Z,19.56
2022-11-05T12:43:37.628Z,19.55
2022-11-05T12:44:38.231Z,19.59
2022-11-05T12:45:38.826Z,19.62
2022-11-05T12:46:39.427Z,19.56
2022-11-05T12:47:40.097Z,19.59
2022-11-05T12:48:40.697Z,19.63
2022-11-05T12:49:41.296Z,19.59
2022-11-05T12:50:41.897Z,19.63
2022-11-05T12:51:42.501Z,19.63
2022-11-05T12:52:43.107Z,19.64
2022-11-05T12:53:43.707Z,19.63
2022-11-05T12:54:44.312Z,19.64
2022-11-05T12:55:48.564Z,19.63
2022-11-05T12:56:46.509Z,19.63
2022-11-05T12:57:47.109Z,19.59
2022-11-05T12:58:47.706Z,19.51
2022-11-05T12:59:48.307Z,19.59
2022-11-05T13:00:48.959Z,19.59